Evolution — 2FKB6 — position and weather

sailwx.info

Track history (hours):
 
Tides and Currents Weather Stations Pressure Air Temp Water Temp Dewpoint Dewpoint Depression Visibility Wind Speed Wind Dir Waves Ship Positions

Evolution

Last reported at 2014-Aug-17 15:22 UTC. Time now 2014-Aug-21 02:27 UTC.
Position N 42°43' E 006°19'.

Type: Sailing vessel. MMSI: 235091936.

Date/timePositionNaut miles runAvg speedWind from/ knotsBaromVisibWave heightAir tempDewpointWater temp
2014-Aug-17 15:22N 42°43' E 006°19'6 7.1
2014-Aug-17 14:32N 42°47' E 006°12'7 6.8
2014-Aug-17 13:33N 42°50' E 006°05'6 6.5
2014-Aug-17 12:33N 42°54' E 005°57'4 4.2
2014-Aug-17 11:33N 42°56' E 005°52'7 6.6
2014-Aug-17 10:33N 43°00' E 005°45'7 6.9
2014-Aug-17 09:31N 43°04' E 005°37'16 7.0
2014-Aug-17 07:15N 43°13' E 005°19'4 5.1
2014-Aug-17 06:32N 43°17' E 005°19'0 0.0
2014-Aug-15 13:28N 43°17' E 005°19'0 0.0
2014-Aug-15 12:28N 43°17' E 005°19'0 0.0
2014-Aug-15 11:31N 43°17' E 005°19'0 0.0
2014-Aug-15 10:28N 43°17' E 005°19'0 0.0
2014-Aug-15 09:31N 43°17' E 005°19'0 0.0
2014-Aug-15 08:28N 43°17' E 005°19'0 0.0
2014-Aug-14 16:28N 43°17' E 005°19'2 1.6
2014-Aug-14 15:33N 43°15' E 005°18'  
Track history (hours):
 
Tides and Currents Weather Stations Pressure Air Temp Water Temp Dewpoint Dewpoint Depression Visibility Wind Speed Wind Dir Waves Ship Positions

Evolution

Last reported at 2014-Aug-17 15:22 UTC. Time now 2014-Aug-21 02:27 UTC.
Position N 42°43' E 006°19'.

Type: Sailing vessel. MMSI: 235091936.

Date/timePositionNaut miles runAvg speedWind from/ knotsBaromVisibWave heightAir tempDewpointWater temp
2014-Aug-17 15:22N 42°43' E 006°19'6 7.1
2014-Aug-17 14:32N 42°47' E 006°12'7 6.8
2014-Aug-17 13:33N 42°50' E 006°05'6 6.5
2014-Aug-17 12:33N 42°54' E 005°57'4 4.2
2014-Aug-17 11:33N 42°56' E 005°52'7 6.6
2014-Aug-17 10:33N 43°00' E 005°45'7 6.9
2014-Aug-17 09:31N 43°04' E 005°37'16 7.0
2014-Aug-17 07:15N 43°13' E 005°19'4 5.1
2014-Aug-17 06:32N 43°17' E 005°19'0 0.0
2014-Aug-15 13:28N 43°17' E 005°19'0 0.0
2014-Aug-15 12:28N 43°17' E 005°19'0 0.0
2014-Aug-15 11:31N 43°17' E 005°19'0 0.0
2014-Aug-15 10:28N 43°17' E 005°19'0 0.0
2014-Aug-15 09:31N 43°17' E 005°19'0 0.0
2014-Aug-15 08:28N 43°17' E 005°19'0 0.0
2014-Aug-14 16:28N 43°17' E 005°19'2 1.6
2014-Aug-14 15:33N 43°15' E 005°18'  

Dump ship's entire track history